createdAt,value
2023-02-11T00:02:42.187Z,11.10
2023-02-11T00:05:12.970Z,12.05
2023-02-11T00:07:40.837Z,11.85
2023-02-11T00:10:13.429Z,11.15
2023-02-11T00:12:41.206Z,11.77
2023-02-11T00:15:09.406Z,11.82
2023-02-11T00:17:36.909Z,11.40
2023-02-11T00:20:06.636Z,11.25
2023-02-11T00:22:35.704Z,10.68
2023-02-11T00:25:03.923Z,11.57
2023-02-11T00:27:33.679Z,10.75
2023-02-11T00:30:12.605Z,10.43
2023-02-11T00:32:46.761Z,11.15
2023-02-11T00:35:26.169Z,11.38
2023-02-11T00:37:56.709Z,10.10
2023-02-11T00:40:26.850Z,9.82
2023-02-11T00:42:55.265Z,9.77
2023-02-11T00:45:32.485Z,9.93
2023-02-11T00:48:05.689Z,10.52
2023-02-11T00:50:38.927Z,9.98
2023-02-11T00:53:09.342Z,10.73
2023-02-11T00:55:39.919Z,9.18
2023-02-11T00:58:07.705Z,9.88
2023-02-11T01:00:40.497Z,9.88
2023-02-11T01:03:09.456Z,9.57
2023-02-11T01:05:37.338Z,10.43
2023-02-11T01:08:05.363Z,9.73
2023-02-11T01:10:33.381Z,8.27
2023-02-11T01:13:01.891Z,9.73
2023-02-11T01:15:29.531Z,10.25
2023-02-11T01:17:57.606Z,9.48
2023-02-11T01:20:28.701Z,9.77
2023-02-11T01:22:57.567Z,8.20
2023-02-11T01:25:25.146Z,9.13
2023-02-11T01:27:52.743Z,9.80
2023-02-11T01:30:20.260Z,7.90
2023-02-11T01:32:49.461Z,9.40
2023-02-11T01:35:17.170Z,9.82
2023-02-11T01:37:45.187Z,9.48
2023-02-11T01:40:14.482Z,8.90
2023-02-11T01:42:42.426Z,10.18
2023-02-11T01:45:28.571Z,8.57
2023-02-11T01:47:56.070Z,8.32
2023-02-11T01:50:23.753Z,8.35
2023-02-11T01:52:51.592Z,9.25
2023-02-11T01:55:37.591Z,9.48
2023-02-11T01:58:05.461Z,8.80
2023-02-11T02:00:38.351Z,8.30
2023-02-11T02:03:14.803Z,8.20
2023-02-11T02:05:49.464Z,8.50
2023-02-11T02:08:23.544Z,7.35
2023-02-11T02:10:54.988Z,6.97
2023-02-11T02:13:23.939Z,7.00
2023-02-11T02:15:57.254Z,7.78
2023-02-11T02:18:28.089Z,7.60
2023-02-11T02:21:04.023Z,6.90
2023-02-11T02:23:34.199Z,6.97
2023-02-11T02:26:05.295Z,7.47
2023-02-11T02:28:36.069Z,5.90
2023-02-11T02:31:21.979Z,5.65
2023-02-11T02:34:25.662Z,4.97
2023-02-11T02:37:09.606Z,6.10
2023-02-11T02:39:43.866Z,5.97
2023-02-11T02:42:15.503Z,6.85
2023-02-11T02:44:50.935Z,5.63
2023-02-11T02:47:18.536Z,5.22
2023-02-11T02:49:46.944Z,5.40
2023-02-11T02:52:37.275Z,6.07
2023-02-11T02:55:19.913Z,6.13
2023-02-11T02:58:02.981Z,6.03
2023-02-11T03:00:59.128Z,6.32
2023-02-11T03:03:46.138Z,5.75
2023-02-11T03:06:18.003Z,6.25
2023-02-11T03:08:57.378Z,6.50
2023-02-11T03:11:28.900Z,4.80
2023-02-11T03:14:03.591Z,5.65
2023-02-11T03:16:38.311Z,6.25
2023-02-11T03:19:09.724Z,5.63
2023-02-11T03:21:41.109Z,4.78
2023-02-11T03:24:14.743Z,5.70
2023-02-11T03:26:48.931Z,4.30
2023-02-11T03:29:34.297Z,4.70
2023-02-11T03:32:16.389Z,5.22
2023-02-11T03:37:53.474Z,4.63
2023-02-11T03:40:23.904Z,5.00
2023-02-11T03:42:57.085Z,4.13
2023-02-11T03:48:02.434Z,4.82
2023-02-11T03:50:31.847Z,4.63
2023-02-11T03:53:00.812Z,4.85
2023-02-11T03:55:33.746Z,4.55
2023-02-11T03:58:01.543Z,5.00
2023-02-11T04:00:32.860Z,6.63
2023-02-11T04:03:12.458Z,4.78
2023-02-11T04:05:46.156Z,4.88
2023-02-11T04:08:17.473Z,3.75
2023-02-11T04:10:49.438Z,4.70
2023-02-11T04:13:33.887Z,4.20
2023-02-11T04:16:05.323Z,4.70
2023-02-11T04:18:35.412Z,4.70
2023-02-11T04:21:09.548Z,3.88
2023-02-11T04:23:39.328Z,4.25
2023-02-11T04:26:12.498Z,3.83
2023-02-11T04:28:40.471Z,3.85
2023-02-11T04:31:08.186Z,3.85
2023-02-11T04:33:36.052Z,3.90
2023-02-11T04:36:06.755Z,4.18
2023-02-11T04:38:34.260Z,4.18
2023-02-11T04:41:09.372Z,2.72
2023-02-11T04:43:36.966Z,3.85
2023-02-11T04:46:27.132Z,3.25
2023-02-11T04:48:54.844Z,3.17
2023-02-11T04:51:22.416Z,2.95
2023-02-11T04:53:54.416Z,4.35
2023-02-11T04:56:24.655Z,3.13
2023-02-11T04:58:54.831Z,3.10
2023-02-11T05:01:22.595Z,3.30
2023-02-11T05:03:51.300Z,3.25
2023-02-11T05:06:27.926Z,3.10
2023-02-11T05:09:01.316Z,3.58
2023-02-11T05:11:34.878Z,3.72
2023-02-11T05:14:03.575Z,2.85
2023-02-11T05:24:50.983Z,3.38
2023-02-11T05:27:25.360Z,3.25
2023-02-11T05:30:04.726Z,3.60
2023-02-11T05:32:32.922Z,3.63
2023-02-11T05:35:00.640Z,3.58
2023-02-11T05:37:33.422Z,3.40
2023-02-11T05:40:01.354Z,3.17
2023-02-11T05:42:33.282Z,3.35
2023-02-11T05:45:01.048Z,3.67
2023-02-11T05:47:28.700Z,3.97
2023-02-11T05:49:58.470Z,4.03
2023-02-11T05:52:25.978Z,4.43
2023-02-11T05:54:53.740Z,4.05
2023-02-11T05:57:25.864Z,3.53
2023-02-11T06:00:02.512Z,3.92
2023-02-11T06:02:43.316Z,3.97
2023-02-11T06:05:20.741Z,5.05
2023-02-11T06:07:51.442Z,4.28
2023-02-11T06:10:36.365Z,4.68
2023-02-11T06:13:10.099Z,4.15
2023-02-11T06:15:40.471Z,5.30
2023-02-11T06:18:11.296Z,4.30
2023-02-11T06:20:44.687Z,4.30
2023-02-11T06:23:12.889Z,5.20
2023-02-11T06:26:06.386Z,4.78
2023-02-11T06:28:40.775Z,4.00
2023-02-11T06:34:31.011Z,4.00
2023-02-11T06:37:07.291Z,4.35
2023-02-11T06:39:43.288Z,4.78
2023-02-11T06:42:22.059Z,4.70
2023-02-11T06:44:55.237Z,4.18
2023-02-11T06:47:34.509Z,4.55
2023-02-11T06:50:12.264Z,4.75
2023-02-11T06:53:01.566Z,5.70
2023-02-11T06:55:59.940Z,4.55
2023-02-11T06:58:31.421Z,4.20
2023-02-11T07:03:46.295Z,4.13
2023-02-11T07:06:30.506Z,4.30
2023-02-11T07:09:04.485Z,4.13
2023-02-11T07:11:52.549Z,3.67
2023-02-11T07:14:28.874Z,4.60
2023-02-11T07:17:20.222Z,3.63
2023-02-11T07:19:53.830Z,5.97
2023-02-11T07:22:35.304Z,4.68
2023-02-11T07:25:19.649Z,4.53
2023-02-11T07:27:55.259Z,4.88
2023-02-11T07:30:46.833Z,4.80
2023-02-11T07:36:53.190Z,4.35
2023-02-11T07:59:33.055Z,4.55
2023-02-11T08:05:12.346Z,5.25
2023-02-11T08:22:46.132Z,5.45
2023-02-11T08:29:49.138Z,5.45
2023-02-11T08:36:22.676Z,4.35
2023-02-11T08:39:12.218Z,5.15
2023-02-11T08:42:03.047Z,5.85
2023-02-11T08:44:31.856Z,4.63
2023-02-11T08:46:59.891Z,4.43
2023-02-11T08:49:27.770Z,4.75
2023-02-11T08:51:56.663Z,4.97
2023-02-11T08:54:24.524Z,5.57
2023-02-11T08:56:53.092Z,6.20
2023-02-11T08:59:21.575Z,5.85
2023-02-11T09:02:14.322Z,6.00
2023-02-11T09:04:54.994Z,6.97
2023-02-11T09:07:22.901Z,5.90
2023-02-11T09:09:54.843Z,5.70
2023-02-11T09:12:52.733Z,5.68
2023-02-11T09:18:36.155Z,5.93
2023-02-11T09:21:17.841Z,6.10
2023-02-11T09:24:03.186Z,5.72
2023-02-11T09:26:35.136Z,5.78
2023-02-11T09:29:06.978Z,5.93
2023-02-11T09:43:17.220Z,4.50
2023-02-11T09:46:08.462Z,6.47
2023-02-11T09:48:44.686Z,4.55
2023-02-11T09:54:27.531Z,5.50
2023-02-11T09:57:03.527Z,5.13
2023-02-11T09:59:43.093Z,6.03
2023-02-11T10:02:42.049Z,6.25
2023-02-11T10:05:28.612Z,5.35
2023-02-11T10:08:06.102Z,5.93
2023-02-11T10:10:55.838Z,5.25
2023-02-11T10:13:54.240Z,6.32
2023-02-11T10:19:05.584Z,6.00
2023-02-11T10:22:38.557Z,6.22
2023-02-11T10:25:45.833Z,5.95
2023-02-11T10:28:34.319Z,6.28
2023-02-11T10:31:39.709Z,5.88
2023-02-11T11:17:26.390Z,6.20
2023-02-11T11:21:06.741Z,5.72
2023-02-11T11:23:54.025Z,7.00
2023-02-11T11:26:28.911Z,7.07
2023-02-11T11:29:38.654Z,8.32
2023-02-11T11:32:46.295Z,6.07
2023-02-11T11:35:40.738Z,5.70
2023-02-11T11:38:23.534Z,6.40
2023-02-11T11:41:13.616Z,6.05
2023-02-11T11:43:55.308Z,5.47
2023-02-11T11:59:06.786Z,6.20
2023-02-11T12:01:54.450Z,6.32
2023-02-11T12:04:44.502Z,7.80
2023-02-11T12:07:18.269Z,6.80
2023-02-11T12:10:35.750Z,5.25
2023-02-11T12:13:30.827Z,7.28
2023-02-11T12:16:15.929Z,7.00
2023-02-11T12:19:24.008Z,6.47
2023-02-11T12:28:45.940Z,7.43
2023-02-11T12:36:16.637Z,6.43
2023-02-11T12:43:44.159Z,6.72
2023-02-11T12:46:56.231Z,6.93
2023-02-11T12:50:02.898Z,6.80
2023-02-11T12:52:47.335Z,7.03
2023-02-11T12:55:33.560Z,8.48
2023-02-11T12:58:04.655Z,8.30
2023-02-11T13:01:10.833Z,9.15
2023-02-11T13:03:51.568Z,6.45
2023-02-11T13:07:14.716Z,7.43
2023-02-11T13:09:56.226Z,7.03
2023-02-11T13:13:18.516Z,7.28
2023-02-11T13:21:03.225Z,7.55
2023-02-11T13:23:38.908Z,8.25
2023-02-11T13:26:16.241Z,7.80
2023-02-11T13:28:57.023Z,8.20
2023-02-11T13:31:30.464Z,7.97
2023-02-11T13:34:23.986Z,7.78
2023-02-11T13:36:56.432Z,8.38
2023-02-11T13:39:24.712Z,7.75
2023-02-11T13:42:04.237Z,7.70
2023-02-11T13:44:34.391Z,8.88
2023-02-11T13:47:05.669Z,8.02
2023-02-11T13:49:36.538Z,8.90
2023-02-11T13:52:31.976Z,9.02
2023-02-11T13:55:25.085Z,9.93
2023-02-11T13:58:12.555Z,8.50
2023-02-11T14:01:45.394Z,9.02
2023-02-11T14:04:58.038Z,9.20
2023-02-11T14:07:57.119Z,9.10
2023-02-11T14:11:23.030Z,9.48
2023-02-11T14:14:10.711Z,9.02
2023-02-11T14:16:56.081Z,9.30
2023-02-11T14:19:57.283Z,9.20
2023-02-11T14:22:50.165Z,10.02
2023-02-11T14:25:43.294Z,8.30
2023-02-11T14:28:22.859Z,7.95
2023-02-11T14:31:10.538Z,9.40
2023-02-11T14:33:48.756Z,9.13
2023-02-11T14:36:32.758Z,9.38
2023-02-11T14:39:00.544Z,11.02
2023-02-11T14:41:48.843Z,10.55
2023-02-11T14:44:19.956Z,10.65
2023-02-11T14:46:56.432Z,8.57
2023-02-11T14:49:25.583Z,5.13
2023-02-11T14:52:05.442Z,7.80
2023-02-11T14:54:38.823Z,9.50
2023-02-11T14:57:14.133Z,9.07
2023-02-11T15:00:03.058Z,10.60
2023-02-11T15:02:38.891Z,9.15
2023-02-11T15:05:34.384Z,6.20
2023-02-11T15:11:42.200Z,9.32
2023-02-11T15:14:19.639Z,9.38
2023-02-11T15:17:14.808Z,7.75
2023-02-11T15:20:32.346Z,8.68
2023-02-11T15:23:09.444Z,8.10
2023-02-11T15:26:03.447Z,9.15
2023-02-11T15:31:02.392Z,7.85
2023-02-11T15:33:32.988Z,9.02
2023-02-11T15:36:04.747Z,9.63
2023-02-11T15:38:38.810Z,6.03
2023-02-11T15:41:43.420Z,8.75
2023-02-11T15:44:32.039Z,6.82
2023-02-11T15:47:31.037Z,7.95
2023-02-11T15:50:31.291Z,9.48
2023-02-11T15:53:31.014Z,9.05
2023-02-11T15:56:14.746Z,7.57
2023-02-11T15:59:02.791Z,9.63
2023-02-11T16:01:45.740Z,8.23
2023-02-11T16:04:17.787Z,9.68
2023-02-11T16:06:53.929Z,6.93
2023-02-11T16:09:37.985Z,8.48
2023-02-11T16:12:29.430Z,10.98
2023-02-11T16:15:00.106Z,7.78
2023-02-11T16:17:37.222Z,8.70
2023-02-11T16:20:18.024Z,8.15
2023-02-11T16:22:48.595Z,8.30
2023-02-11T16:25:20.629Z,7.65
2023-02-11T16:27:55.222Z,6.93
2023-02-11T16:30:40.146Z,8.40
2023-02-11T16:33:11.758Z,9.68
2023-02-11T16:35:45.117Z,7.72
2023-02-11T16:38:14.106Z,8.27
2023-02-11T16:40:50.856Z,9.15
2023-02-11T16:43:34.068Z,8.75
2023-02-11T16:46:12.910Z,6.43
2023-02-11T16:48:43.680Z,9.68
2023-02-11T16:51:16.830Z,9.68
2023-02-11T16:54:36.747Z,10.45
2023-02-11T16:57:37.540Z,8.52
2023-02-11T17:03:17.799Z,7.82
2023-02-11T17:05:57.735Z,8.73
2023-02-11T17:08:34.188Z,10.60
2023-02-11T17:11:06.780Z,8.50
2023-02-11T17:14:48.358Z,8.75
2023-02-11T17:17:27.450Z,8.77
2023-02-11T17:20:19.501Z,9.30
2023-02-11T17:22:53.132Z,8.90
2023-02-11T17:25:23.670Z,9.52
2023-02-11T17:27:54.556Z,8.32
2023-02-11T17:30:37.734Z,10.45
2023-02-11T17:33:08.849Z,7.80
2023-02-11T17:35:42.309Z,10.93
2023-02-11T17:38:20.057Z,10.07
2023-02-11T17:40:57.510Z,9.88
2023-02-11T17:43:30.490Z,10.00
2023-02-11T17:48:49.774Z,10.00
2023-02-11T17:51:29.930Z,9.35
2023-02-11T17:54:01.779Z,11.48
2023-02-11T17:56:34.549Z,10.75
2023-02-11T17:59:08.741Z,10.82
2023-02-11T18:01:42.259Z,11.77
2023-02-11T18:04:34.954Z,9.70
2023-02-11T18:07:05.345Z,8.00
2023-02-11T18:09:47.287Z,11.07
2023-02-11T18:12:17.671Z,8.35
2023-02-11T18:14:49.368Z,11.05
2023-02-11T18:17:17.591Z,11.63
2023-02-11T18:19:52.358Z,9.52
2023-02-11T18:22:38.655Z,9.70
2023-02-11T18:25:09.964Z,9.70
2023-02-11T18:27:38.115Z,10.43
2023-02-11T18:30:08.683Z,10.00
2023-02-11T18:32:36.719Z,12.32
2023-02-11T18:35:08.998Z,10.18
2023-02-11T18:37:43.416Z,12.25
2023-02-11T18:40:11.936Z,11.20
2023-02-11T18:42:45.532Z,8.30
2023-02-11T18:45:17.421Z,11.68
2023-02-11T18:47:53.852Z,11.80
2023-02-11T18:50:22.483Z,9.93
2023-02-11T18:52:52.554Z,10.40
2023-02-11T18:55:26.255Z,9.93
2023-02-11T18:57:56.672Z,10.43
2023-02-11T19:00:24.647Z,11.20
2023-02-11T19:03:15.809Z,9.65
2023-02-11T19:05:52.329Z,14.00
2023-02-11T19:08:25.840Z,11.52
2023-02-11T19:10:53.505Z,9.20
2023-02-11T19:13:20.966Z,13.02
2023-02-11T19:15:53.196Z,12.32
2023-02-11T19:18:26.459Z,11.60
2023-02-11T19:20:54.185Z,11.02
2023-02-11T19:23:21.821Z,11.52
2023-02-11T19:25:49.650Z,10.73
2023-02-11T19:28:23.321Z,11.10
2023-02-11T19:30:51.121Z,10.85
2023-02-11T19:33:20.196Z,10.52
2023-02-11T19:35:51.834Z,10.55
2023-02-11T19:38:19.523Z,10.55
2023-02-11T19:40:55.038Z,11.63
2023-02-11T19:43:22.748Z,10.38
2023-02-11T19:45:50.797Z,12.70
2023-02-11T19:48:18.502Z,10.77
2023-02-11T19:50:46.064Z,11.73
2023-02-11T19:53:13.567Z,13.18
2023-02-11T19:55:41.228Z,12.77
2023-02-11T19:58:08.771Z,11.90
2023-02-11T20:00:36.725Z,12.85
2023-02-11T20:03:04.770Z,13.25
2023-02-11T20:05:40.056Z,12.48
2023-02-11T20:11:04.250Z,12.38
2023-02-11T20:13:40.967Z,13.90
2023-02-11T20:16:14.930Z,12.60
2023-02-11T20:18:50.301Z,11.68
2023-02-11T20:21:22.104Z,11.98
2023-02-11T20:23:53.169Z,11.60
2023-02-11T20:26:39.268Z,11.27
2023-02-11T20:29:29.779Z,10.80
2023-02-11T20:31:59.297Z,12.02
2023-02-11T20:34:30.206Z,12.25
2023-02-11T20:36:58.058Z,11.98
2023-02-11T20:39:27.035Z,13.75
2023-02-11T20:41:55.096Z,9.38
2023-02-11T20:44:37.082Z,12.43
2023-02-11T20:47:13.436Z,11.68
2023-02-11T20:49:42.336Z,10.23
2023-02-11T20:52:13.391Z,12.68
2023-02-11T20:57:11.083Z,9.18
2023-02-11T20:59:38.791Z,10.55
2023-02-11T21:02:09.503Z,10.30
2023-02-11T21:04:40.225Z,9.90
2023-02-11T21:07:16.592Z,9.20
2023-02-11T21:09:45.642Z,11.65
2023-02-11T21:12:14.699Z,11.40
2023-02-11T21:14:42.224Z,10.80
2023-02-11T21:17:11.142Z,10.13
2023-02-11T21:19:39.157Z,10.15
2023-02-11T21:22:06.629Z,10.55
2023-02-11T21:24:34.326Z,10.98
2023-02-11T21:27:01.850Z,9.88
2023-02-11T21:29:29.495Z,10.65
2023-02-11T21:31:58.127Z,9.63
2023-02-11T21:34:25.968Z,9.57
2023-02-11T21:36:53.721Z,10.40
2023-02-11T21:39:21.490Z,9.88
2023-02-11T21:41:49.166Z,9.70
2023-02-11T21:44:16.715Z,10.05
2023-02-11T21:46:44.671Z,9.55
2023-02-11T21:49:12.156Z,9.10
2023-02-11T21:51:39.788Z,9.90
2023-02-11T21:54:07.308Z,8.38
2023-02-11T21:56:35.748Z,7.55
2023-02-11T21:59:03.496Z,9.93
2023-02-11T22:01:32.294Z,10.60
2023-02-11T22:04:02.644Z,10.75
2023-02-11T22:06:33.618Z,9.93
2023-02-11T22:09:09.989Z,8.68
2023-02-11T22:11:51.800Z,9.15
2023-02-11T22:14:19.675Z,9.93
2023-02-11T22:16:52.151Z,8.90
2023-02-11T22:19:30.805Z,8.32
2023-02-11T22:22:04.969Z,10.05
2023-02-11T22:24:38.392Z,8.63
2023-02-11T22:27:20.944Z,8.98
2023-02-11T22:29:59.470Z,9.45
2023-02-11T22:32:34.951Z,9.70
2023-02-11T22:38:27.272Z,8.65
2023-02-11T22:40:58.954Z,8.35
2023-02-11T22:43:31.414Z,8.32
2023-02-11T22:46:17.148Z,10.38
2023-02-11T22:49:12.563Z,10.27
2023-02-11T22:51:43.792Z,10.85
2023-02-11T22:54:13.725Z,10.05
2023-02-11T22:56:53.359Z,8.63
2023-02-11T22:59:24.502Z,10.18
2023-02-11T23:02:12.823Z,8.50
2023-02-11T23:05:03.626Z,8.18
2023-02-11T23:07:34.271Z,8.40
2023-02-11T23:10:06.705Z,8.77
2023-02-11T23:12:39.957Z,8.05
2023-02-11T23:15:10.288Z,6.78
2023-02-11T23:17:37.842Z,8.00
2023-02-11T23:20:11.704Z,8.30
2023-02-11T23:22:47.041Z,8.13
2023-02-11T23:25:22.284Z,8.23
2023-02-11T23:27:53.609Z,7.65
2023-02-11T23:30:29.444Z,9.48
2023-02-11T23:33:02.603Z,7.65
2023-02-11T23:35:30.524Z,6.90
2023-02-11T23:38:01.855Z,7.53
2023-02-11T23:40:36.001Z,8.15
2023-02-11T23:43:13.689Z,10.23
2023-02-11T23:45:44.140Z,7.53
2023-02-11T23:48:48.055Z,8.45
2023-02-11T23:51:24.641Z,8.32
2023-02-11T23:53:56.455Z,8.00
2023-02-11T23:56:31.156Z,6.97
2023-02-11T23:58:59.692Z,6.80
